createdAt,value
2024-03-09T00:01:35.894Z,4.38
2024-03-09T00:04:02.379Z,4.41
2024-03-09T00:06:28.805Z,4.31
2024-03-09T00:08:55.135Z,4.27
2024-03-09T00:11:21.686Z,4.28
2024-03-09T00:13:48.140Z,4.35
2024-03-09T00:16:16.002Z,4.24
2024-03-09T00:18:45.415Z,4.32
2024-03-09T00:21:12.388Z,4.22
2024-03-09T00:23:38.786Z,4.14
2024-03-09T00:26:07.054Z,4.21
2024-03-09T00:28:34.043Z,4.18
2024-03-09T00:31:00.651Z,4.06
2024-03-09T00:33:27.014Z,4.15
2024-03-09T00:35:55.487Z,4.07
2024-03-09T00:38:21.844Z,4.13
2024-03-09T00:40:48.216Z,4.07
2024-03-09T00:43:14.575Z,4.02
2024-03-09T00:45:40.896Z,3.96
2024-03-09T00:48:08.693Z,3.83
2024-03-09T00:50:35.081Z,3.87
2024-03-09T00:53:01.578Z,3.89
2024-03-09T00:55:28.720Z,3.86
2024-03-09T00:57:57.008Z,3.79
2024-03-09T01:00:24.807Z,3.79
2024-03-09T01:02:51.852Z,3.87
2024-03-09T01:05:27.630Z,3.72
2024-03-09T01:07:54.247Z,3.83
2024-03-09T01:10:20.748Z,3.75
2024-03-09T01:12:48.515Z,3.65
2024-03-09T01:15:15.360Z,3.75
2024-03-09T01:17:41.949Z,3.80
2024-03-09T01:20:09.438Z,3.68
2024-03-09T01:22:37.160Z,3.65
2024-03-09T01:25:03.885Z,3.71
2024-03-09T01:27:30.298Z,3.66
2024-03-09T01:30:00.390Z,3.56
2024-03-09T01:32:28.666Z,3.62
2024-03-09T01:34:55.457Z,3.63
2024-03-09T01:37:23.132Z,3.55
2024-03-09T01:39:53.396Z,3.58
2024-03-09T01:42:20.077Z,3.58
2024-03-09T01:44:50.499Z,3.61
2024-03-09T01:47:19.974Z,3.55
2024-03-09T01:49:49.151Z,3.57
2024-03-09T01:52:15.853Z,3.62
2024-03-09T01:54:43.949Z,3.57
2024-03-09T01:57:10.907Z,3.47
2024-03-09T01:59:39.878Z,3.40
2024-03-09T02:02:07.493Z,3.41
2024-03-09T02:04:35.934Z,3.46
2024-03-09T02:07:02.625Z,3.39
2024-03-09T02:09:29.880Z,3.35
2024-03-09T02:12:01.833Z,3.37
2024-03-09T02:14:29.472Z,3.31
2024-03-09T02:16:56.757Z,3.38
2024-03-09T02:19:23.173Z,3.26
2024-03-09T02:21:49.734Z,3.35
2024-03-09T02:24:21.829Z,3.30
2024-03-09T02:26:48.645Z,3.30
2024-03-09T02:29:15.010Z,3.24
2024-03-09T02:31:42.248Z,3.19
2024-03-09T02:34:08.732Z,3.28
2024-03-09T02:36:35.650Z,3.23
2024-03-09T02:39:03.376Z,3.18
2024-03-09T02:41:29.751Z,3.24
2024-03-09T02:43:56.828Z,3.29
2024-03-09T02:46:26.402Z,3.28
2024-03-09T02:48:56.785Z,3.26
2024-03-09T02:51:24.271Z,3.21
2024-03-09T02:53:53.578Z,3.13
2024-03-09T02:56:21.022Z,3.23
2024-03-09T02:58:49.300Z,3.19
2024-03-09T03:01:17.965Z,3.16
2024-03-09T03:03:46.347Z,3.23
2024-03-09T03:06:14.176Z,3.15
2024-03-09T03:08:40.518Z,3.11
2024-03-09T03:11:06.915Z,3.18
2024-03-09T03:13:34.745Z,3.12
2024-03-09T03:16:01.113Z,3.08
2024-03-09T03:18:27.448Z,2.93
2024-03-09T03:20:54.539Z,3.07
2024-03-09T03:23:20.879Z,2.98
2024-03-09T03:25:47.286Z,2.95
2024-03-09T03:28:13.660Z,3.05
2024-03-09T03:30:40.012Z,3.03
2024-03-09T03:33:07.145Z,3.04
2024-03-09T03:35:33.550Z,2.98
2024-03-09T03:38:00.416Z,2.91
2024-03-09T03:40:26.877Z,2.89
2024-03-09T03:42:53.284Z,2.93
2024-03-09T03:45:19.699Z,2.97
2024-03-09T03:47:46.831Z,2.91
2024-03-09T03:50:13.347Z,2.88
2024-03-09T03:52:40.734Z,2.88
2024-03-09T03:55:12.990Z,2.93
2024-03-09T03:57:41.195Z,2.88
2024-03-09T04:00:10.739Z,2.89
2024-03-09T04:02:38.384Z,2.76
2024-03-09T04:05:05.231Z,2.89
2024-03-09T04:07:31.734Z,2.91
2024-03-09T04:09:58.117Z,2.94
2024-03-09T04:12:26.036Z,2.85
2024-03-09T04:14:54.382Z,2.84
2024-03-09T04:17:20.708Z,2.87
2024-03-09T04:19:47.141Z,2.95
2024-03-09T04:22:14.267Z,2.88
2024-03-09T04:24:44.525Z,2.86
2024-03-09T04:27:11.322Z,2.89
2024-03-09T04:29:38.417Z,2.85
2024-03-09T04:32:08.473Z,2.87
2024-03-09T04:34:36.998Z,2.74
2024-03-09T04:37:06.240Z,2.85
2024-03-09T04:39:39.526Z,2.80
2024-03-09T04:42:05.996Z,2.84
2024-03-09T04:44:33.876Z,2.75
2024-03-09T04:47:00.492Z,2.84
2024-03-09T04:49:27.040Z,2.74
2024-03-09T04:51:53.407Z,2.72
2024-03-09T04:54:19.885Z,2.84
2024-03-09T04:56:46.216Z,2.88
2024-03-09T04:59:12.598Z,2.85
2024-03-09T05:01:39.044Z,2.82
2024-03-09T05:04:05.434Z,2.83
2024-03-09T05:06:34.680Z,2.83
2024-03-09T05:09:01.020Z,2.79
2024-03-09T05:11:27.555Z,2.72
2024-03-09T05:13:54.188Z,2.66
2024-03-09T05:16:20.606Z,2.66
2024-03-09T05:18:47.593Z,2.58
2024-03-09T05:21:14.001Z,2.68
2024-03-09T05:23:40.908Z,2.65
2024-03-09T05:26:07.311Z,2.60
2024-03-09T05:28:33.961Z,2.61
2024-03-09T05:31:01.120Z,2.55
2024-03-09T05:33:28.625Z,2.54
2024-03-09T05:35:55.006Z,2.58
2024-03-09T05:38:21.486Z,2.52
2024-03-09T05:40:47.855Z,2.51
2024-03-09T05:43:14.708Z,2.57
2024-03-09T05:45:42.338Z,2.57
2024-03-09T05:48:10.086Z,2.60
2024-03-09T05:50:38.642Z,2.42
2024-03-09T05:53:05.698Z,2.47
2024-03-09T05:55:32.336Z,2.43
2024-03-09T05:57:59.211Z,2.43
2024-03-09T06:00:28.832Z,2.43
2024-03-09T06:02:57.003Z,2.37
2024-03-09T06:05:24.267Z,2.39
2024-03-09T06:07:50.785Z,2.33
2024-03-09T06:10:20.741Z,2.30
2024-03-09T06:12:48.728Z,2.27
2024-03-09T06:15:16.527Z,2.28
2024-03-09T06:17:50.181Z,2.30
2024-03-09T06:20:18.716Z,2.25
2024-03-09T06:22:46.972Z,2.24
2024-03-09T06:25:23.370Z,2.35
2024-03-09T06:27:53.885Z,2.32
2024-03-09T06:30:21.004Z,2.34
2024-03-09T06:32:50.360Z,2.31
2024-03-09T06:35:20.668Z,2.42
2024-03-09T06:37:59.956Z,2.41
2024-03-09T06:40:32.531Z,2.46
2024-03-09T06:43:00.343Z,2.37
2024-03-09T06:45:27.748Z,2.52
2024-03-09T06:47:54.910Z,2.47
2024-03-09T06:50:21.427Z,2.53
2024-03-09T06:52:47.894Z,2.51
2024-03-09T06:55:15.847Z,2.67
2024-03-09T06:57:42.490Z,2.67
2024-03-09T07:00:15.276Z,2.76
2024-03-09T07:02:45.009Z,2.75
2024-03-09T07:05:11.705Z,2.66
2024-03-09T07:07:39.157Z,2.85
2024-03-09T07:10:13.105Z,2.87
2024-03-09T07:12:42.963Z,2.87
2024-03-09T07:15:17.265Z,3.00
2024-03-09T07:17:45.681Z,2.94
2024-03-09T07:20:14.205Z,2.90
2024-03-09T07:22:46.073Z,3.03
2024-03-09T07:25:16.567Z,3.04
2024-03-09T07:27:44.605Z,3.12
2024-03-09T07:30:15.237Z,3.18
2024-03-09T07:32:44.341Z,3.24
2024-03-09T07:35:15.751Z,3.34
2024-03-09T07:37:47.129Z,3.31
2024-03-09T07:40:15.642Z,3.34
2024-03-09T07:42:42.782Z,3.49
2024-03-09T07:45:17.315Z,3.57
2024-03-09T07:47:50.495Z,3.55
2024-03-09T07:50:22.657Z,3.64
2024-03-09T07:52:51.718Z,3.89
2024-03-09T07:55:23.348Z,4.21
2024-03-09T07:58:04.644Z,4.52
2024-03-09T08:00:39.801Z,4.52
2024-03-09T08:03:06.569Z,4.91
2024-03-09T08:05:32.927Z,4.60
2024-03-09T08:08:10.348Z,4.43
2024-03-09T08:10:40.219Z,4.42
2024-03-09T08:13:06.634Z,4.31
2024-03-09T08:15:33.664Z,4.45
2024-03-09T08:18:00.161Z,4.74
2024-03-09T08:20:27.803Z,4.79
2024-03-09T08:22:55.236Z,5.11
2024-03-09T08:25:21.700Z,5.26
2024-03-09T08:27:48.752Z,5.63
2024-03-09T08:30:16.948Z,6.02
2024-03-09T08:32:47.443Z,6.24
2024-03-09T08:35:16.650Z,6.52
2024-03-09T08:37:44.495Z,6.67
2024-03-09T08:40:12.900Z,7.13
2024-03-09T08:42:39.251Z,7.35
2024-03-09T08:45:07.726Z,7.58
2024-03-09T08:47:34.122Z,7.65
2024-03-09T08:50:00.582Z,7.82
2024-03-09T08:52:27.252Z,8.55
2024-03-09T08:54:53.575Z,8.26
2024-03-09T08:57:19.945Z,8.49
2024-03-09T08:59:47.141Z,8.78
2024-03-09T09:02:13.574Z,8.89
2024-03-09T09:04:40.245Z,8.79
2024-03-09T09:07:06.946Z,8.06
2024-03-09T09:09:33.355Z,7.89
2024-03-09T09:12:01.124Z,8.28
2024-03-09T09:14:28.417Z,7.85
2024-03-09T09:16:54.981Z,7.67
2024-03-09T09:19:23.086Z,7.65
2024-03-09T09:21:50.197Z,7.51
2024-03-09T09:24:17.203Z,7.58
2024-03-09T09:26:44.508Z,7.70
2024-03-09T09:29:11.692Z,7.83
2024-03-09T09:31:38.848Z,7.80
2024-03-09T09:34:05.360Z,7.92
2024-03-09T09:36:31.704Z,7.91
2024-03-09T09:39:00.113Z,7.92
2024-03-09T09:41:30.000Z,8.05
2024-03-09T09:44:00.070Z,7.91
2024-03-09T09:46:30.643Z,7.67
2024-03-09T09:48:58.646Z,7.59
2024-03-09T09:51:26.743Z,7.56
2024-03-09T09:53:54.223Z,7.59
2024-03-09T09:56:23.790Z,7.61
2024-03-09T09:58:50.709Z,7.68
2024-03-09T10:01:22.114Z,7.80
2024-03-09T10:03:49.021Z,7.97
2024-03-09T10:06:19.715Z,8.01
2024-03-09T10:08:49.616Z,8.11
2024-03-09T10:11:16.915Z,8.20
2024-03-09T10:13:44.938Z,8.23
2024-03-09T10:16:14.121Z,8.22
2024-03-09T10:18:42.553Z,8.24
2024-03-09T10:21:11.246Z,8.38
2024-03-09T10:23:38.382Z,8.45
2024-03-09T10:26:11.151Z,8.56
2024-03-09T10:28:38.493Z,8.52
2024-03-09T10:31:06.286Z,8.61
2024-03-09T10:33:37.017Z,8.72
2024-03-09T10:36:06.954Z,8.85
2024-03-09T10:38:34.563Z,8.93
2024-03-09T10:41:07.472Z,9.23
2024-03-09T10:43:36.859Z,9.34
2024-03-09T10:46:06.338Z,9.58
2024-03-09T10:48:34.849Z,9.67
2024-03-09T10:51:15.629Z,9.34
2024-03-09T10:54:07.396Z,9.10
2024-03-09T10:56:33.929Z,9.29
2024-03-09T10:59:03.200Z,9.34
2024-03-09T11:01:30.814Z,9.28
2024-03-09T11:04:00.650Z,9.13
2024-03-09T11:06:29.600Z,9.21
2024-03-09T11:08:58.025Z,9.28
2024-03-09T11:11:26.460Z,9.45
2024-03-09T11:13:53.076Z,9.50
2024-03-09T11:16:22.639Z,9.66
2024-03-09T11:18:56.627Z,9.69
2024-03-09T11:21:25.048Z,9.55
2024-03-09T11:23:53.255Z,9.57
2024-03-09T11:26:26.118Z,9.68
2024-03-09T11:28:59.256Z,9.81
2024-03-09T11:31:32.298Z,9.98
2024-03-09T11:34:14.857Z,10.09
2024-03-09T11:36:51.792Z,10.23
2024-03-09T11:39:38.597Z,10.10
2024-03-09T11:42:10.507Z,10.00
2024-03-09T11:44:40.768Z,10.12
2024-03-09T11:47:07.658Z,10.02
2024-03-09T11:49:35.658Z,10.10
2024-03-09T11:52:06.483Z,10.05
2024-03-09T11:54:33.719Z,9.97
2024-03-09T11:57:00.739Z,10.28
2024-03-09T11:59:27.487Z,10.10
2024-03-09T12:02:03.343Z,10.23
2024-03-09T12:04:33.993Z,10.41
2024-03-09T12:07:02.220Z,10.17
2024-03-09T12:09:31.805Z,10.16
2024-03-09T12:11:58.485Z,10.08
2024-03-09T12:14:25.112Z,10.09
2024-03-09T12:16:52.391Z,10.06
2024-03-09T12:19:19.281Z,10.18
2024-03-09T12:21:45.862Z,10.18
2024-03-09T12:24:13.602Z,10.28
2024-03-09T12:26:40.414Z,10.48
2024-03-09T12:29:09.077Z,10.47
2024-03-09T12:31:38.474Z,10.71
2024-03-09T12:34:06.817Z,10.79
2024-03-09T12:36:35.224Z,10.63
2024-03-09T12:39:18.043Z,10.44
2024-03-09T12:41:51.368Z,10.49
2024-03-09T12:44:18.088Z,10.52
2024-03-09T12:46:45.013Z,10.49
2024-03-09T12:49:14.426Z,10.69
2024-03-09T12:51:42.327Z,10.43
2024-03-09T12:54:10.684Z,10.37
2024-03-09T12:56:39.299Z,10.37
2024-03-09T12:59:10.142Z,10.34
2024-03-09T13:01:45.592Z,10.30
2024-03-09T13:04:12.677Z,10.18
2024-03-09T13:06:43.875Z,10.04
2024-03-09T13:09:16.923Z,9.97
2024-03-09T13:11:48.459Z,10.08
2024-03-09T13:14:21.611Z,10.21
2024-03-09T13:16:50.539Z,10.10
2024-03-09T13:19:18.359Z,10.03
2024-03-09T13:21:55.106Z,10.00
2024-03-09T13:24:25.762Z,9.84
2024-03-09T13:26:52.842Z,9.87
2024-03-09T13:29:21.628Z,9.93
2024-03-09T13:31:50.533Z,9.90
2024-03-09T13:34:17.881Z,9.92
2024-03-09T13:36:44.468Z,9.92
2024-03-09T13:39:17.173Z,9.88
2024-03-09T13:41:45.882Z,9.88
2024-03-09T13:44:13.437Z,9.83
2024-03-09T13:46:42.171Z,9.84
2024-03-09T13:49:15.441Z,9.86
2024-03-09T13:51:45.352Z,9.88
2024-03-09T13:54:12.439Z,9.87
2024-03-09T13:56:38.947Z,9.91
2024-03-09T13:59:14.380Z,9.89
2024-03-09T14:01:44.540Z,10.02
2024-03-09T14:04:12.167Z,9.99
2024-03-09T14:06:55.991Z,9.97
2024-03-09T14:09:31.341Z,9.96
2024-03-09T14:11:57.851Z,9.98
2024-03-09T14:14:24.376Z,10.10
2024-03-09T14:16:50.753Z,10.16
2024-03-09T14:19:18.698Z,10.08
2024-03-09T14:21:50.265Z,10.18
2024-03-09T14:24:16.912Z,10.16
2024-03-09T14:26:43.758Z,10.07
2024-03-09T14:29:10.325Z,10.00
2024-03-09T14:31:36.784Z,10.15
2024-03-09T14:34:04.053Z,10.09
2024-03-09T14:36:32.910Z,10.05
2024-03-09T14:38:59.569Z,10.08
2024-03-09T14:41:27.108Z,10.08
2024-03-09T14:43:54.263Z,10.16
2024-03-09T14:46:21.581Z,10.18
2024-03-09T14:48:54.126Z,10.14
2024-03-09T14:51:25.725Z,10.14
2024-03-09T14:53:52.113Z,10.21
2024-03-09T14:56:18.619Z,10.17
2024-03-09T14:58:50.092Z,10.23
2024-03-09T15:01:18.675Z,10.29
2024-03-09T15:03:47.938Z,10.25
2024-03-09T15:06:16.019Z,10.31
2024-03-09T15:08:45.774Z,10.36
2024-03-09T15:11:18.024Z,10.39
2024-03-09T15:13:50.725Z,10.37
2024-03-09T15:16:27.491Z,10.37
2024-03-09T15:18:54.345Z,10.39
2024-03-09T15:21:23.674Z,10.39
2024-03-09T15:23:52.425Z,10.43
2024-03-09T15:26:20.941Z,10.47
2024-03-09T15:28:47.915Z,10.41
2024-03-09T15:31:15.740Z,10.27
2024-03-09T15:33:43.049Z,10.32
2024-03-09T15:36:11.803Z,10.41
2024-03-09T15:38:42.383Z,10.27
2024-03-09T15:41:12.853Z,10.17
2024-03-09T15:43:40.500Z,10.19
2024-03-09T15:46:07.582Z,10.24
2024-03-09T15:48:34.197Z,10.24
2024-03-09T15:51:11.157Z,10.20
2024-03-09T15:53:41.457Z,10.28
2024-03-09T15:56:08.464Z,10.23
2024-03-09T15:58:41.366Z,10.13
2024-03-09T16:01:08.975Z,10.19
2024-03-09T16:03:36.898Z,10.20
2024-03-09T16:06:03.427Z,10.18
2024-03-09T16:08:29.918Z,10.29
2024-03-09T16:10:57.032Z,10.23
2024-03-09T16:13:23.568Z,10.23
2024-03-09T16:15:50.386Z,10.22
2024-03-09T16:18:17.879Z,10.16
2024-03-09T16:20:44.536Z,10.07
2024-03-09T16:23:16.600Z,10.16
2024-03-09T16:25:48.595Z,10.06
2024-03-09T16:28:21.942Z,10.08
2024-03-09T16:30:51.335Z,9.97
2024-03-09T16:33:18.289Z,9.87
2024-03-09T16:35:49.970Z,9.88
2024-03-09T16:38:22.685Z,9.87
2024-03-09T16:40:50.491Z,9.88
2024-03-09T16:43:17.887Z,9.85
2024-03-09T16:45:44.286Z,9.83
2024-03-09T16:48:12.981Z,9.82
2024-03-09T16:50:43.063Z,9.79
2024-03-09T16:53:12.532Z,9.79
2024-03-09T16:55:40.768Z,9.73
2024-03-09T16:58:07.757Z,9.85
2024-03-09T17:00:37.059Z,9.83
2024-03-09T17:03:10.807Z,9.79
2024-03-09T17:05:37.218Z,9.80
2024-03-09T17:08:07.462Z,9.73
2024-03-09T17:10:37.215Z,9.69
2024-03-09T17:13:08.464Z,9.65
2024-03-09T17:15:36.365Z,9.66
2024-03-09T17:18:05.206Z,9.65
2024-03-09T17:20:32.103Z,9.61
2024-03-09T17:23:03.084Z,9.48
2024-03-09T17:25:31.774Z,9.57
2024-03-09T17:27:58.149Z,9.49
2024-03-09T17:30:26.939Z,9.38
2024-03-09T17:32:57.081Z,9.36
2024-03-09T17:35:23.747Z,9.30
2024-03-09T17:37:50.770Z,9.21
2024-03-09T17:40:17.764Z,9.29
2024-03-09T17:42:55.945Z,9.55
2024-03-09T17:45:29.434Z,9.49
2024-03-09T17:47:56.617Z,9.52
2024-03-09T17:50:27.389Z,9.40
2024-03-09T17:52:59.053Z,9.48
2024-03-09T17:55:29.683Z,9.58
2024-03-09T17:58:02.237Z,9.72
2024-03-09T18:00:34.685Z,9.63
2024-03-09T18:03:02.255Z,9.64
2024-03-09T18:05:30.918Z,9.65
2024-03-09T18:08:11.711Z,9.69
2024-03-09T18:10:41.047Z,9.69
2024-03-09T18:13:08.821Z,9.54
2024-03-09T18:15:35.766Z,9.62
2024-03-09T18:18:09.604Z,9.62
2024-03-09T18:20:39.390Z,9.70
2024-03-09T18:23:05.749Z,9.71
2024-03-09T18:25:34.929Z,9.70
2024-03-09T18:28:02.237Z,9.63
2024-03-09T18:30:32.557Z,9.68
2024-03-09T18:32:59.037Z,9.60
2024-03-09T18:35:25.591Z,9.64
2024-03-09T18:37:54.755Z,9.72
2024-03-09T18:40:23.250Z,9.73
2024-03-09T18:42:51.135Z,9.67
2024-03-09T18:45:24.768Z,9.64
2024-03-09T18:47:54.670Z,9.64
2024-03-09T18:50:24.343Z,9.63
2024-03-09T18:52:53.865Z,9.52
2024-03-09T18:55:21.019Z,9.53
2024-03-09T18:57:47.631Z,9.58
2024-03-09T19:00:17.368Z,9.54
2024-03-09T19:02:48.276Z,9.57
2024-03-09T19:05:19.136Z,9.55
2024-03-09T19:07:47.001Z,9.48
2024-03-09T19:10:14.602Z,9.46
2024-03-09T19:12:41.054Z,9.40
2024-03-09T19:15:11.477Z,9.42
2024-03-09T19:17:42.532Z,9.52
2024-03-09T19:20:12.631Z,9.54
2024-03-09T19:22:40.701Z,9.50
2024-03-09T19:25:12.099Z,9.58
2024-03-09T19:27:42.731Z,9.51
2024-03-09T19:30:11.840Z,9.58
2024-03-09T19:32:38.958Z,9.48
2024-03-09T19:35:06.356Z,9.45
2024-03-09T19:37:33.203Z,9.40
2024-03-09T19:39:59.545Z,9.34
2024-03-09T19:42:25.883Z,9.42
2024-03-09T19:44:52.216Z,9.43
2024-03-09T19:47:19.463Z,9.34
2024-03-09T19:49:45.905Z,9.42
2024-03-09T19:52:15.147Z,9.39
2024-03-09T19:54:43.829Z,9.41
2024-03-09T19:57:10.169Z,9.48
2024-03-09T19:59:38.264Z,9.44
2024-03-09T20:02:06.195Z,9.58
2024-03-09T20:04:36.832Z,9.53
2024-03-09T20:07:05.300Z,9.64
2024-03-09T20:09:31.636Z,9.68
2024-03-09T20:11:58.195Z,9.60
2024-03-09T20:14:28.320Z,9.57
2024-03-09T20:16:54.707Z,9.54
2024-03-09T20:19:21.085Z,9.61
2024-03-09T20:21:47.950Z,9.61
2024-03-09T20:24:16.697Z,9.58
2024-03-09T20:26:43.061Z,9.66
2024-03-09T20:29:11.500Z,9.81
2024-03-09T20:31:37.904Z,9.76
2024-03-09T20:34:04.268Z,9.74
2024-03-09T20:36:31.972Z,9.79
2024-03-09T20:38:58.799Z,9.85
2024-03-09T20:41:25.206Z,9.85
2024-03-09T20:43:51.597Z,9.79
2024-03-09T20:46:18.547Z,9.79
2024-03-09T20:48:44.969Z,9.77
2024-03-09T20:51:18.294Z,9.71
2024-03-09T20:53:48.136Z,9.89
2024-03-09T20:56:15.729Z,9.87
2024-03-09T20:58:42.835Z,9.81
2024-03-09T21:01:10.128Z,9.80
2024-03-09T21:03:36.545Z,9.83
2024-03-09T21:06:09.854Z,9.74
2024-03-09T21:08:36.843Z,9.72
2024-03-09T21:11:06.511Z,9.71
2024-03-09T21:13:33.647Z,9.85
2024-03-09T21:16:03.907Z,9.88
2024-03-09T21:18:32.961Z,9.84
2024-03-09T21:20:59.935Z,9.77
2024-03-09T21:23:26.672Z,9.59
2024-03-09T21:25:53.152Z,9.72
2024-03-09T21:28:21.355Z,9.66
2024-03-09T21:30:49.215Z,9.76
2024-03-09T21:33:15.631Z,9.69
2024-03-09T21:35:41.984Z,9.66
2024-03-09T21:38:08.758Z,9.64
2024-03-09T21:40:35.174Z,9.68
2024-03-09T21:43:01.499Z,9.67
2024-03-09T21:45:28.029Z,9.69
2024-03-09T21:47:54.681Z,9.60
2024-03-09T21:50:24.474Z,9.57
2024-03-09T21:52:51.794Z,9.59
2024-03-09T21:55:19.683Z,9.67
2024-03-09T21:57:46.098Z,9.52
2024-03-09T22:00:23.660Z,9.67
2024-03-09T22:02:55.163Z,9.59
2024-03-09T22:05:22.622Z,9.67
2024-03-09T22:07:49.338Z,9.65
2024-03-09T22:10:18.188Z,9.58
2024-03-09T22:12:44.815Z,9.65
2024-03-09T22:15:13.428Z,9.60
2024-03-09T22:17:40.371Z,9.69
2024-03-09T22:20:13.195Z,9.63
2024-03-09T22:22:42.615Z,9.63
2024-03-09T22:25:16.219Z,9.60
2024-03-09T22:27:44.297Z,9.57
2024-03-09T22:30:12.614Z,9.55
2024-03-09T22:32:41.222Z,9.58
2024-03-09T22:35:12.437Z,9.51
2024-03-09T22:37:41.777Z,9.54
2024-03-09T22:40:10.833Z,9.62
2024-03-09T22:42:40.282Z,9.70
2024-03-09T22:45:08.788Z,9.71
2024-03-09T22:47:39.449Z,9.69
2024-03-09T22:50:09.521Z,9.80
2024-03-09T22:52:36.431Z,9.79
2024-03-09T22:55:04.968Z,9.69
2024-03-09T22:57:31.865Z,9.72
2024-03-09T22:59:58.202Z,9.77
2024-03-09T23:02:24.636Z,9.61
2024-03-09T23:04:51.371Z,9.75
2024-03-09T23:07:18.303Z,9.76
2024-03-09T23:09:46.207Z,9.79
2024-03-09T23:12:12.641Z,9.72
2024-03-09T23:14:40.736Z,9.62
2024-03-09T23:17:10.569Z,9.75
2024-03-09T23:19:38.269Z,9.73
2024-03-09T23:22:06.710Z,9.80
2024-03-09T23:24:37.668Z,9.87
2024-03-09T23:27:04.420Z,9.78
2024-03-09T23:29:33.843Z,9.80
2024-03-09T23:32:00.984Z,9.84
2024-03-09T23:34:31.191Z,9.88
2024-03-09T23:36:58.386Z,9.89
2024-03-09T23:39:24.850Z,9.82
2024-03-09T23:41:51.180Z,9.90
2024-03-09T23:44:17.577Z,9.76
2024-03-09T23:46:43.987Z,9.92
2024-03-09T23:49:10.504Z,9.98
2024-03-09T23:51:37.787Z,10.01
2024-03-09T23:54:06.096Z,9.95
2024-03-09T23:56:35.426Z,9.82
2024-03-09T23:59:02.002Z,9.88
